Time;durP1;ratioP1;P1;durP2;ratioP2;P2;SDS_P1;SDS_P2;PMS_P1;PMS_P2;Temp;Humidity;BMP_temperature;BMP_pressure;BME280_temperature;BME280_humidity;BME280_pressure;Samples;Min_cycle;Max_cycle;Signal;HPM_P1;HPM_P2
2021/10/13 00:01:16;;;;;;;7.10;6.60;;;;;;;;;;5070718;28;24415;-62
2021/10/13 00:03:41;;;;;;;6.47;5.97;;;;;;;;;;5086093;28;25160;-62
2021/10/13 00:06:07;;;;;;;7.22;6.63;;;;;;;;;;5083108;28;24438;-61
2021/10/13 00:08:32;;;;;;;6.55;6.05;;;;;;;;;;5070179;28;25025;-61
2021/10/13 00:10:57;;;;;;;7.40;6.80;;;;;;;;;;5085463;28;24426;-62
2021/10/13 00:13:22;;;;;;;6.80;6.30;;;;;;;;;;5085925;28;25012;-62
2021/10/13 00:15:47;;;;;;;6.73;6.17;;;;;;;;;;5068023;28;24422;-61
2021/10/13 00:18:12;;;;;;;6.80;6.30;;;;;;;;;;5075798;28;24410;-61
2021/10/13 00:20:38;;;;;;;6.30;5.80;;;;;;;;;;5082724;28;25016;-61
2021/10/13 00:23:03;;;;;;;6.30;5.80;;;;;;;;;;5084224;28;24422;-61
2021/10/13 00:25:28;;;;;;;7.60;7.00;;;;;;;;;;5081638;28;25006;-62
2021/10/13 00:27:53;;;;;;;6.90;6.40;;;;;;;;;;5078355;28;24416;-61
2021/10/13 00:30:18;;;;;;;5.97;5.47;;;;;;;;;;5077482;28;24438;-61
2021/10/13 00:32:44;;;;;;;6.30;5.87;;;;;;;;;;5074841;28;24780;-62
2021/10/13 00:35:09;;;;;;;5.63;5.22;;;;;;;;;;5069561;28;24407;-61
2021/10/13 00:37:35;;;;;;;6.97;6.38;;;;;;;;;;5071017;28;25016;-62
2021/10/13 00:40:00;;;;;;;6.90;6.40;;;;;;;;;;5086865;28;24420;-62
2021/10/13 00:42:25;;;;;;;6.60;6.10;;;;;;;;;;5076685;28;24414;-62
2021/10/13 00:44:50;;;;;;;6.90;6.30;;;;;;;;;;5070394;28;24485;-62
2021/10/13 00:47:15;;;;;;;6.18;5.68;;;;;;;;;;5071072;28;24426;-61
2021/10/13 00:49:41;;;;;;;5.60;5.20;;;;;;;;;;5074488;28;24517;-61
2021/10/13 00:52:06;;;;;;;5.50;5.00;;;;;;;;;;5068167;28;25018;-61
2021/10/13 00:54:31;;;;;;;5.60;5.20;;;;;;;;;;5070501;28;24417;-61
2021/10/13 00:56:57;;;;;;;6.40;5.90;;;;;;;;;;5077800;28;24415;-61
2021/10/13 00:59:22;;;;;;;6.00;5.60;;;;;;;;;;5087629;28;24437;-61
2021/10/13 01:01:47;;;;;;;5.80;5.40;;;;;;;;;;5083964;28;25032;-61
2021/10/13 01:04:35;;;;;;;5.50;5.10;;;;;;;;;;5080042;28;24418;-61
2021/10/13 01:07:11;;;;;;;5.53;5.13;;;;;;;;;;5045923;28;24935;-61
2021/10/13 01:09:43;;;;;;;5.40;5.00;;;;;;;;;;5076017;28;24442;-61
2021/10/13 01:12:27;;;;;;;6.00;5.50;;;;;;;;;;5071873;28;24983;-61
2021/10/13 01:14:55;;;;;;;5.70;5.10;;;;;;;;;;5080520;28;24534;-61
2021/10/13 01:17:31;;;;;;;5.40;5.00;;;;;;;;;;5083295;28;24514;-61
2021/10/13 01:20:11;;;;;;;5.40;5.00;;;;;;;;;;5079364;28;24418;-61
2021/10/13 01:22:52;;;;;;;5.32;4.93;;;;;;;;;;5068571;28;24442;-61
2021/10/13 01:25:20;;;;;;;6.30;5.45;;;;;;;;;;5079894;28;24414;-61
2021/10/13 01:27:45;;;;;;;5.60;5.20;;;;;;;;;;5071684;28;24450;-61
2021/10/13 01:30:11;;;;;;;5.00;4.63;;;;;;;;;;5074655;28;24526;-61
2021/10/13 01:32:37;;;;;;;5.10;4.70;;;;;;;;;;5089993;28;24434;-61
2021/10/13 01:35:02;;;;;;;4.80;4.50;;;;;;;;;;5073504;28;24838;-61
2021/10/13 01:37:39;;;;;;;5.40;5.00;;;;;;;;;;5081613;28;24999;-61
2021/10/13 01:40:05;;;;;;;5.30;4.90;;;;;;;;;;5082574;28;24758;-60
2021/10/13 01:42:32;;;;;;;5.30;4.90;;;;;;;;;;5076019;28;24425;-61
2021/10/13 01:44:58;;;;;;;4.80;4.50;;;;;;;;;;5078930;28;25049;-61
2021/10/13 01:47:24;;;;;;;5.15;4.75;;;;;;;;;;5084431;28;24464;-61
2021/10/13 01:49:52;;;;;;;4.95;4.55;;;;;;;;;;5079233;28;25011;-61
2021/10/13 01:52:17;;;;;;;4.82;4.45;;;;;;;;;;5078395;28;24474;-61
2021/10/13 01:54:43;;;;;;;4.82;4.43;;;;;;;;;;5072846;28;24445;-61
2021/10/13 01:57:09;;;;;;;4.50;4.20;;;;;;;;;;5078617;28;24535;-61
2021/10/13 01:59:36;;;;;;;4.40;4.10;;;;;;;;;;5080259;28;24951;-61
2021/10/13 02:02:01;;;;;;;4.50;4.10;;;;;;;;;;5070490;28;25019;-61
2021/10/13 02:04:27;;;;;;;4.50;4.20;;;;;;;;;;5088934;28;24430;-61
2021/10/13 02:06:52;;;;;;;4.50;4.20;;;;;;;;;;5085820;28;24518;-61
2021/10/13 02:09:20;;;;;;;4.60;4.20;;;;;;;;;;5086132;28;24418;-61
2021/10/13 02:11:45;;;;;;;4.20;3.90;;;;;;;;;;5082941;28;24485;-61
2021/10/13 02:14:11;;;;;;;4.63;4.27;;;;;;;;;;5086930;28;24441;-61
2021/10/13 02:16:37;;;;;;;4.00;3.70;;;;;;;;;;5070034;28;24417;-61
2021/10/13 02:19:03;;;;;;;4.43;4.07;;;;;;;;;;5076812;28;24449;-61
2021/10/13 02:21:30;;;;;;;3.97;3.58;;;;;;;;;;5079150;28;24453;-61
2021/10/13 02:23:58;;;;;;;3.95;3.65;;;;;;;;;;5074451;28;24426;-61
2021/10/13 02:26:27;;;;;;;3.95;3.65;;;;;;;;;;5071879;28;24516;-61
2021/10/13 02:28:54;;;;;;;3.77;3.47;;;;;;;;;;5082750;28;24797;-61
2021/10/13 02:31:19;;;;;;;4.32;3.92;;;;;;;;;;5070281;28;24500;-61
2021/10/13 02:33:45;;;;;;;3.80;3.50;;;;;;;;;;5076566;28;24419;-61
2021/10/13 02:36:10;;;;;;;3.67;3.43;;;;;;;;;;5069942;28;24414;-61
2021/10/13 02:38:35;;;;;;;3.42;3.22;;;;;;;;;;5067678;28;24506;-61
2021/10/13 02:41:00;;;;;;;3.55;3.25;;;;;;;;;;5071677;28;24461;-61
2021/10/13 02:43:25;;;;;;;3.80;3.50;;;;;;;;;;5082682;28;24443;-61
2021/10/13 02:45:56;;;;;;;3.73;3.43;;;;;;;;;;5082282;28;24417;-61
2021/10/13 02:48:29;;;;;;;3.90;3.60;;;;;;;;;;5073570;28;24414;-61
2021/10/13 02:50:59;;;;;;;4.07;3.50;;;;;;;;;;5078792;28;24591;-61
2021/10/13 02:53:36;;;;;;;4.53;3.70;;;;;;;;;;5083616;28;24425;-60
2021/10/13 02:56:05;;;;;;;4.00;3.70;;;;;;;;;;5077027;28;24718;-61
2021/10/13 02:58:38;;;;;;;3.90;3.60;;;;;;;;;;5089691;28;24555;-61
2021/10/13 03:01:04;;;;;;;4.05;3.70;;;;;;;;;;5080885;28;24471;-61
2021/10/13 03:03:33;;;;;;;4.07;3.77;;;;;;;;;;5080963;28;24594;-61
2021/10/13 03:06:00;;;;;;;4.45;3.95;;;;;;;;;;5080913;28;24444;-61
2021/10/13 03:08:26;;;;;;;4.43;4.10;;;;;;;;;;5086220;28;24422;-61
2021/10/13 03:10:53;;;;;;;6.30;4.15;;;;;;;;;;5084098;28;24579;-61
2021/10/13 03:13:20;;;;;;;4.60;4.10;;;;;;;;;;5088308;28;24457;-61
2021/10/13 03:15:45;;;;;;;4.95;4.00;;;;;;;;;;5074833;28;25245;-61
2021/10/13 03:18:11;;;;;;;4.78;4.30;;;;;;;;;;5069073;28;24466;-61
2021/10/13 03:20:36;;;;;;;4.30;3.90;;;;;;;;;;5082038;28;24837;-61
2021/10/13 03:23:01;;;;;;;4.47;4.07;;;;;;;;;;5080078;28;24468;-61
2021/10/13 03:25:28;;;;;;;5.77;4.60;;;;;;;;;;5069378;28;24418;-61
2021/10/13 03:27:53;;;;;;;4.75;4.22;;;;;;;;;;5070387;28;24912;-61
2021/10/13 03:30:18;;;;;;;4.70;4.20;;;;;;;;;;5075860;28;25077;-61
2021/10/13 03:32:44;;;;;;;5.82;4.68;;;;;;;;;;5073266;28;24522;-61
2021/10/13 03:35:09;;;;;;;4.82;4.30;;;;;;;;;;5075266;28;24525;-61
2021/10/13 03:37:34;;;;;;;5.77;4.20;;;;;;;;;;5080411;28;24415;-61
2021/10/13 03:39:59;;;;;;;4.80;4.40;;;;;;;;;;5076905;28;24504;-61
2021/10/13 03:42:24;;;;;;;5.35;4.70;;;;;;;;;;5075609;28;24945;-62
2021/10/13 03:44:49;;;;;;;4.97;4.30;;;;;;;;;;5073851;28;24454;-62
2021/10/13 03:47:15;;;;;;;4.75;4.35;;;;;;;;;;5083229;28;25018;-61
2021/10/13 03:49:40;;;;;;;4.73;4.27;;;;;;;;;;5074051;28;25273;-62
2021/10/13 03:52:05;;;;;;;5.72;4.72;;;;;;;;;;5073455;28;24473;-62
2021/10/13 03:54:30;;;;;;;5.90;4.43;;;;;;;;;;5074502;28;24419;-62
2021/10/13 03:56:55;;;;;;;6.25;4.82;;;;;;;;;;5080446;28;24947;-62
2021/10/13 03:59:20;;;;;;;5.10;4.60;;;;;;;;;;5092750;27;24452;-61
2021/10/13 04:01:46;;;;;;;5.80;5.20;;;;;;;;;;5084603;28;24405;-61
2021/10/13 04:04:11;;;;;;;5.32;4.82;;;;;;;;;;5079141;28;25135;-62
2021/10/13 04:06:37;;;;;;;6.00;4.60;;;;;;;;;;5078820;28;24407;-62
2021/10/13 04:09:02;;;;;;;5.30;4.80;;;;;;;;;;5073373;28;24420;-61
2021/10/13 04:11:27;;;;;;;5.60;5.10;;;;;;;;;;5071048;28;24519;-62
2021/10/13 04:13:53;;;;;;;5.40;5.00;;;;;;;;;;5079705;28;24449;-61
2021/10/13 04:16:18;;;;;;;5.57;4.85;;;;;;;;;;5081148;28;24417;-61
2021/10/13 04:18:43;;;;;;;5.80;5.30;;;;;;;;;;5074515;28;24522;-61
2021/10/13 04:21:08;;;;;;;6.07;5.57;;;;;;;;;;5078138;28;24445;-62
2021/10/13 04:23:33;;;;;;;6.07;5.57;;;;;;;;;;5082370;28;25037;-61
2021/10/13 04:25:58;;;;;;;6.20;5.60;;;;;;;;;;5074848;28;24486;-61
2021/10/13 04:28:24;;;;;;;6.47;5.88;;;;;;;;;;5070360;28;24453;-61
2021/10/13 04:30:49;;;;;;;6.30;5.80;;;;;;;;;;5065602;28;24458;-62
2021/10/13 04:33:14;;;;;;;6.90;6.23;;;;;;;;;;5074384;28;24422;-61
2021/10/13 04:35:39;;;;;;;6.40;5.80;;;;;;;;;;5076391;28;24429;-61
2021/10/13 04:38:05;;;;;;;6.03;5.53;;;;;;;;;;5070414;28;24483;-61
2021/10/13 04:40:30;;;;;;;5.80;5.30;;;;;;;;;;5070453;28;24969;-61
2021/10/13 04:42:55;;;;;;;5.53;5.13;;;;;;;;;;5075338;28;24422;-61
2021/10/13 04:45:20;;;;;;;6.10;5.50;;;;;;;;;;5074153;28;24440;-62
2021/10/13 04:47:45;;;;;;;6.40;5.80;;;;;;;;;;5069479;28;24479;-62
2021/10/13 04:50:11;;;;;;;6.23;5.63;;;;;;;;;;5084036;28;24468;-62
2021/10/13 04:52:36;;;;;;;6.70;6.00;;;;;;;;;;5077767;28;25073;-62
2021/10/13 04:55:01;;;;;;;7.15;6.35;;;;;;;;;;5076997;28;24418;-62
2021/10/13 04:57:26;;;;;;;6.33;5.83;;;;;;;;;;5069884;28;24411;-62
2021/10/13 04:59:54;;;;;;;6.80;6.20;;;;;;;;;;5076208;28;24430;-62
2021/10/13 05:02:19;;;;;;;7.03;6.43;;;;;;;;;;5078614;28;24488;-62
2021/10/13 05:04:45;;;;;;;6.80;6.10;;;;;;;;;;5075115;28;24449;-62
2021/10/13 05:07:10;;;;;;;7.03;6.32;;;;;;;;;;5079729;28;24772;-61
2021/10/13 05:09:35;;;;;;;6.70;6.10;;;;;;;;;;5090179;28;24425;-62
2021/10/13 05:12:00;;;;;;;7.43;6.72;;;;;;;;;;5087122;28;24410;-62
2021/10/13 05:14:25;;;;;;;6.60;6.00;;;;;;;;;;5083968;28;24422;-62
2021/10/13 05:16:50;;;;;;;7.37;6.67;;;;;;;;;;5083948;28;24429;-62
2021/10/13 05:19:16;;;;;;;7.30;6.40;;;;;;;;;;5080221;28;25007;-61
2021/10/13 05:21:41;;;;;;;7.20;6.60;;;;;;;;;;5081525;28;24430;-62
2021/10/13 05:24:08;;;;;;;8.20;7.40;;;;;;;;;;5075788;28;24430;-62
2021/10/13 05:26:33;;;;;;;7.50;6.90;;;;;;;;;;5075712;28;24429;-61
2021/10/13 05:28:58;;;;;;;7.88;7.18;;;;;;;;;;5077687;28;24541;-62
2021/10/13 05:31:24;;;;;;;8.00;7.30;;;;;;;;;;5086559;28;24441;-62
2021/10/13 05:33:49;;;;;;;8.52;7.82;;;;;;;;;;5082479;28;24817;-62
2021/10/13 05:36:14;;;;;;;8.20;7.40;;;;;;;;;;5067512;28;24433;-61
2021/10/13 05:38:39;;;;;;;8.07;7.37;;;;;;;;;;5082124;28;25030;-61
2021/10/13 05:41:04;;;;;;;8.30;7.50;;;;;;;;;;5084585;28;24463;-62
2021/10/13 05:43:30;;;;;;;9.50;8.60;;;;;;;;;;5086171;28;24410;-62
2021/10/13 05:45:55;;;;;;;8.13;7.30;;;;;;;;;;5077059;28;24607;-62
2021/10/13 05:48:21;;;;;;;8.38;7.70;;;;;;;;;;5060866;28;24425;-62
2021/10/13 05:50:46;;;;;;;8.37;7.60;;;;;;;;;;5065080;28;24994;-62
2021/10/13 05:53:11;;;;;;;7.87;7.27;;;;;;;;;;5085221;28;24578;-62
2021/10/13 05:55:36;;;;;;;8.30;7.60;;;;;;;;;;5088040;28;24486;-62
2021/10/13 05:58:03;;;;;;;8.85;8.15;;;;;;;;;;5076770;28;24454;-60
2021/10/13 06:00:29;;;;;;;8.18;7.47;;;;;;;;;;5076733;28;25024;-62
2021/10/13 06:02:54;;;;;;;7.60;7.00;;;;;;;;;;5069724;28;24542;-61
2021/10/13 06:05:20;;;;;;;8.80;8.00;;;;;;;;;;5085281;28;24422;-61
2021/10/13 06:07:45;;;;;;;9.20;8.40;;;;;;;;;;5072700;28;24780;-61
2021/10/13 06:10:10;;;;;;;8.27;7.57;;;;;;;;;;5083291;28;24418;-61
2021/10/13 06:12:36;;;;;;;8.40;7.70;;;;;;;;;;5072892;28;24840;-61
2021/10/13 06:15:01;;;;;;;8.73;7.93;;;;;;;;;;5087375;28;24753;-61
2021/10/13 06:17:26;;;;;;;8.40;7.70;;;;;;;;;;5087440;28;24422;-61
2021/10/13 06:19:51;;;;;;;8.80;8.00;;;;;;;;;;5068916;28;24410;-62
2021/10/13 06:22:16;;;;;;;10.10;9.10;;;;;;;;;;5071229;28;24458;-62
2021/10/13 06:24:41;;;;;;;10.50;9.50;;;;;;;;;;5088545;28;24477;-62
2021/10/13 06:27:06;;;;;;;9.40;8.60;;;;;;;;;;5087737;28;24453;-62
2021/10/13 06:29:32;;;;;;;9.67;8.87;;;;;;;;;;5082411;28;24442;-62
2021/10/13 06:31:57;;;;;;;9.70;8.88;;;;;;;;;;5079075;28;25194;-62
2021/10/13 06:34:22;;;;;;;9.87;9.00;;;;;;;;;;5073871;28;24429;-62
2021/10/13 06:36:48;;;;;;;9.50;8.70;;;;;;;;;;5078019;28;24589;-61
2021/10/13 06:39:13;;;;;;;10.07;9.13;;;;;;;;;;5076442;28;24801;-61
2021/10/13 06:41:38;;;;;;;9.80;9.00;;;;;;;;;;5084557;28;24429;-62
2021/10/13 06:44:03;;;;;;;9.88;8.95;;;;;;;;;;5080970;28;24422;-61
2021/10/13 06:46:28;;;;;;;9.60;8.77;;;;;;;;;;5081661;28;24429;-62
2021/10/13 06:48:53;;;;;;;11.00;10.00;;;;;;;;;;5081105;28;24433;-61
2021/10/13 06:51:19;;;;;;;11.30;10.30;;;;;;;;;;5072376;28;24813;-61
2021/10/13 06:53:46;;;;;;;10.07;9.10;;;;;;;;;;5084883;28;24631;-61
2021/10/13 06:56:12;;;;;;;11.20;10.18;;;;;;;;;;5073039;28;25047;-61
2021/10/13 06:58:37;;;;;;;12.70;11.53;;;;;;;;;;5078277;28;24531;-60
2021/10/13 07:01:02;;;;;;;16.38;14.85;;;;;;;;;;5080871;28;24521;-62
2021/10/13 07:03:27;;;;;;;11.63;10.73;;;;;;;;;;5083678;28;24414;-62
2021/10/13 07:05:52;;;;;;;15.33;13.87;;;;;;;;;;5080192;28;24421;-62
2021/10/13 07:08:17;;;;;;;16.05;14.65;;;;;;;;;;5084529;28;24422;-62
2021/10/13 07:10:43;;;;;;;13.32;12.23;;;;;;;;;;5080959;28;24413;-62
2021/10/13 07:13:08;;;;;;;13.43;12.23;;;;;;;;;;5075958;28;24583;-62
2021/10/13 07:15:33;;;;;;;13.45;12.18;;;;;;;;;;5063085;28;24391;-62
2021/10/13 07:17:58;;;;;;;13.53;12.33;;;;;;;;;;5066260;28;24418;-62
2021/10/13 07:20:24;;;;;;;13.00;11.80;;;;;;;;;;5084921;28;24951;-62
2021/10/13 07:22:49;;;;;;;12.37;11.17;;;;;;;;;;5080170;28;24439;-61
2021/10/13 07:25:19;;;;;;;12.75;11.55;;;;;;;;;;5077923;28;24488;-61
2021/10/13 07:27:45;;;;;;;12.65;11.45;;;;;;;;;;5078755;28;24454;-61
2021/10/13 07:30:13;;;;;;;13.53;12.23;;;;;;;;;;5083149;28;24991;-61
2021/10/13 07:32:38;;;;;;;14.00;12.60;;;;;;;;;;5084326;28;24983;-60
2021/10/13 07:35:03;;;;;;;12.50;11.40;;;;;;;;;;5076829;28;24426;-60
2021/10/13 07:37:29;;;;;;;13.10;11.80;;;;;;;;;;5079092;28;24390;-61
2021/10/13 07:39:54;;;;;;;14.23;12.77;;;;;;;;;;5079847;28;24551;-61
2021/10/13 07:42:20;;;;;;;11.60;10.50;;;;;;;;;;5075151;28;24430;-61
2021/10/13 07:44:45;;;;;;;13.25;11.95;;;;;;;;;;5063885;28;24394;-61
2021/10/13 07:47:10;;;;;;;14.87;13.40;;;;;;;;;;5078705;28;24452;-61
2021/10/13 07:49:40;;;;;;;13.00;11.80;;;;;;;;;;5078848;28;24503;-61
2021/10/13 07:52:05;;;;;;;14.40;13.00;;;;;;;;;;5089384;28;24433;-61
2021/10/13 07:54:31;;;;;;;11.87;10.77;;;;;;;;;;5102881;28;24397;-61
2021/10/13 07:56:56;;;;;;;13.10;11.80;;;;;;;;;;5080488;28;24451;-61
2021/10/13 07:59:21;;;;;;;12.27;11.18;;;;;;;;;;5063587;28;24402;-61
2021/10/13 08:01:46;;;;;;;13.05;11.82;;;;;;;;;;5077610;28;24428;-61
2021/10/13 08:04:11;;;;;;;13.50;12.13;;;;;;;;;;5080539;28;24394;-61
2021/10/13 08:06:36;;;;;;;9.85;8.95;;;;;;;;;;5076484;28;24894;-61
2021/10/13 08:09:01;;;;;;;9.67;8.77;;;;;;;;;;5078160;28;25006;-61
2021/10/13 08:11:27;;;;;;;10.03;9.13;;;;;;;;;;5083112;28;24894;-61
2021/10/13 08:13:52;;;;;;;14.00;12.60;;;;;;;;;;5082012;28;24401;-61
2021/10/13 08:16:17;;;;;;;11.47;10.37;;;;;;;;;;5083607;28;24490;-62
2021/10/13 08:18:42;;;;;;;11.53;10.33;;;;;;;;;;5070875;28;24595;-61
2021/10/13 08:21:08;;;;;;;11.73;10.63;;;;;;;;;;5058028;28;24433;-61
2021/10/13 08:23:33;;;;;;;10.50;9.50;;;;;;;;;;5071235;28;24513;-61
2021/10/13 08:26:01;;;;;;;12.73;11.43;;;;;;;;;;5081333;28;25010;-61
2021/10/13 08:28:27;;;;;;;10.95;9.95;;;;;;;;;;5081303;28;24479;-61
2021/10/13 08:30:53;;;;;;;10.55;9.65;;;;;;;;;;5081611;28;24463;-61
2021/10/13 08:33:18;;;;;;;9.32;8.52;;;;;;;;;;5083357;28;24475;-61
2021/10/13 08:35:43;;;;;;;9.00;8.10;;;;;;;;;;5079829;28;24519;-61
2021/10/13 08:38:09;;;;;;;10.47;9.57;;;;;;;;;;5077074;28;24421;-61
2021/10/13 08:40:34;;;;;;;10.00;9.00;;;;;;;;;;5071072;28;24894;-61
2021/10/13 08:43:01;;;;;;;11.00;10.00;;;;;;;;;;5073592;28;24418;-61
2021/10/13 08:45:28;;;;;;;9.80;9.00;;;;;;;;;;5082995;28;24960;-61
2021/10/13 08:47:53;;;;;;;10.30;9.30;;;;;;;;;;5081809;28;24509;-61
2021/10/13 08:50:18;;;;;;;9.30;8.50;;;;;;;;;;5085267;28;24520;-61
2021/10/13 08:52:43;;;;;;;8.55;7.75;;;;;;;;;;5085444;28;24434;-61
2021/10/13 08:55:09;;;;;;;9.52;8.63;;;;;;;;;;5079059;28;24425;-61
2021/10/13 08:57:34;;;;;;;10.10;9.20;;;;;;;;;;5082824;28;24398;-61
2021/10/13 08:59:59;;;;;;;9.07;8.20;;;;;;;;;;5080381;28;24941;-61
2021/10/13 09:02:38;;;;;;;9.33;8.47;;;;;;;;;;5079600;28;24426;-61
2021/10/13 09:05:06;;;;;;;11.40;10.20;;;;;;;;;;5068601;28;24407;-61
2021/10/13 09:07:31;;;;;;;14.38;12.88;;;;;;;;;;5060790;28;24842;-61
2021/10/13 09:09:57;;;;;;;11.07;10.00;;;;;;;;;;5077109;28;24614;-62
2021/10/13 09:12:33;;;;;;;9.10;8.07;;;;;;;;;;5064636;28;24426;-62
2021/10/13 09:15:05;;;;;;;8.30;7.60;;;;;;;;;;5077653;28;24780;-62
2021/10/13 09:17:31;;;;;;;8.80;7.90;;;;;;;;;;5077759;28;24928;-62
2021/10/13 09:19:56;;;;;;;8.50;7.80;;;;;;;;;;5076647;28;24956;-62
2021/10/13 09:22:21;;;;;;;8.23;7.53;;;;;;;;;;5083068;28;24566;-62
2021/10/13 09:24:51;;;;;;;8.95;8.05;;;;;;;;;;5081645;28;24464;-62
2021/10/13 09:27:23;;;;;;;8.23;7.20;;;;;;;;;;5077490;28;24543;-60
2021/10/13 09:29:48;;;;;;;7.57;6.88;;;;;;;;;;5079157;28;24464;-61
2021/10/13 09:32:14;;;;;;;7.63;7.03;;;;;;;;;;5077192;28;24434;-60
2021/10/13 09:34:46;;;;;;;7.23;6.63;;;;;;;;;;5077071;28;24976;-60
2021/10/13 09:37:11;;;;;;;6.75;6.20;;;;;;;;;;5061121;28;24482;-60
2021/10/13 09:39:37;;;;;;;7.03;6.40;;;;;;;;;;5065530;28;24839;-61
2021/10/13 09:42:04;;;;;;;7.00;6.17;;;;;;;;;;5077098;28;24878;-61
2021/10/13 09:44:31;;;;;;;6.90;6.30;;;;;;;;;;5077519;28;24416;-61
2021/10/13 09:46:57;;;;;;;6.72;6.22;;;;;;;;;;5061216;28;25061;-61
2021/10/13 09:49:42;;;;;;;6.60;6.00;;;;;;;;;;5083061;28;24433;-61
2021/10/13 09:52:15;;;;;;;6.88;6.28;;;;;;;;;;5064100;28;24430;-61
2021/10/13 09:54:41;;;;;;;6.53;5.93;;;;;;;;;;5066913;28;24409;-61
2021/10/13 09:57:23;;;;;;;7.70;6.10;;;;;;;;;;5080002;28;24459;-61
2021/10/13 09:59:55;;;;;;;6.30;5.70;;;;;;;;;;5082354;28;24405;-61
2021/10/13 10:02:21;;;;;;;6.30;5.70;;;;;;;;;;5084078;28;24475;-61
2021/10/13 10:04:46;;;;;;;5.40;4.90;;;;;;;;;;5083753;28;24943;-60
2021/10/13 10:07:11;;;;;;;5.13;4.70;;;;;;;;;;5083599;28;24984;-59
2021/10/13 10:09:36;;;;;;;5.90;5.30;;;;;;;;;;5086220;28;24394;-62
2021/10/13 10:12:06;;;;;;;6.50;5.50;;;;;;;;;;5080720;28;24855;-62
2021/10/13 10:14:37;;;;;;;9.63;5.23;;;;;;;;;;5072618;28;24506;-62
2021/10/13 10:17:05;;;;;;;5.70;5.20;;;;;;;;;;5062002;28;24963;-59
2021/10/13 10:19:36;;;;;;;5.65;5.15;;;;;;;;;;5076907;28;24456;-62
2021/10/13 10:22:12;;;;;;;6.22;5.72;;;;;;;;;;5065809;28;24419;-61
2021/10/13 10:24:39;;;;;;;6.75;6.18;;;;;;;;;;5065750;28;24402;-61
2021/10/13 10:27:20;;;;;;;4.77;4.33;;;;;;;;;;5082287;28;24947;-61
2021/10/13 10:29:45;;;;;;;9.13;8.25;;;;;;;;;;5078310;28;24499;-61
2021/10/13 10:32:16;;;;;;;5.07;4.68;;;;;;;;;;5080354;28;24491;-60
2021/10/13 10:35:01;;;;;;;5.60;5.10;;;;;;;;;;5081644;28;24410;-60
2021/10/13 10:37:35;;;;;;;5.00;4.57;;;;;;;;;;5085386;28;24718;-61
2021/10/13 10:40:02;;;;;;;4.40;4.10;;;;;;;;;;5082189;28;24502;-60
2021/10/13 10:42:46;;;;;;;10.57;9.27;;;;;;;;;;5073706;28;24445;-60
2021/10/13 10:45:14;;;;;;;10.02;8.00;;;;;;;;;;5059958;28;24460;-60
2021/10/13 10:47:53;;;;;;;18.17;15.77;;;;;;;;;;5080957;28;24429;-60
2021/10/13 10:50:29;;;;;;;15.53;13.47;;;;;;;;;;5084212;28;24423;-59
2021/10/13 10:53:13;;;;;;;7.18;6.47;;;;;;;;;;5083180;28;24432;-60
2021/10/13 10:55:39;;;;;;;5.30;4.80;;;;;;;;;;5085444;28;24409;-59
2021/10/13 10:58:16;;;;;;;14.10;10.65;;;;;;;;;;5080535;28;24418;-61
2021/10/13 11:00:43;;;;;;;10.98;9.65;;;;;;;;;;5074245;28;24579;-60
2021/10/13 11:03:18;;;;;;;10.75;9.25;;;;;;;;;;5081235;28;24437;-60
2021/10/13 11:05:44;;;;;;;5.25;4.70;;;;;;;;;;5078876;28;24425;-60
2021/10/13 11:08:09;;;;;;;8.30;7.40;;;;;;;;;;5084891;28;24900;-60
2021/10/13 11:10:34;;;;;;;4.10;3.80;;;;;;;;;;5083042;28;24418;-60
2021/10/13 11:13:00;;;;;;;5.70;5.30;;;;;;;;;;5080961;28;24768;-60
2021/10/13 11:15:27;;;;;;;5.63;5.13;;;;;;;;;;5078618;28;24897;-60
2021/10/13 11:17:52;;;;;;;5.10;4.70;;;;;;;;;;5081082;28;25038;-60
2021/10/13 11:20:19;;;;;;;5.60;5.20;;;;;;;;;;5081221;28;24667;-60
2021/10/13 11:22:45;;;;;;;4.90;4.50;;;;;;;;;;5072507;28;24509;-60
2021/10/13 11:25:18;;;;;;;5.68;5.18;;;;;;;;;;5081390;28;24564;-60
2021/10/13 11:27:55;;;;;;;6.00;5.50;;;;;;;;;;5079280;28;25006;-61
2021/10/13 11:30:20;;;;;;;6.22;5.70;;;;;;;;;;5079137;28;24475;-61
2021/10/13 11:32:46;;;;;;;5.50;5.10;;;;;;;;;;5079773;28;25061;-62
2021/10/13 11:35:13;;;;;;;6.50;5.50;;;;;;;;;;5080504;28;24406;-62
2021/10/13 11:37:38;;;;;;;4.75;4.45;;;;;;;;;;5069566;28;24418;-61
2021/10/13 11:40:04;;;;;;;4.90;4.50;;;;;;;;;;5062176;28;24453;-61
2021/10/13 11:42:31;;;;;;;4.50;4.10;;;;;;;;;;5077599;28;24446;-61
2021/10/13 11:44:56;;;;;;;4.03;3.72;;;;;;;;;;5074610;28;24483;-63
2021/10/13 11:47:29;;;;;;;4.70;4.30;;;;;;;;;;5073867;28;24949;-62
2021/10/13 11:50:02;;;;;;;4.55;4.18;;;;;;;;;;5059711;28;24487;-61
2021/10/13 11:52:28;;;;;;;4.40;4.00;;;;;;;;;;5070459;28;24537;-61
2021/10/13 11:54:57;;;;;;;4.07;3.60;;;;;;;;;;5082833;28;24601;-61
2021/10/13 11:57:22;;;;;;;4.00;3.72;;;;;;;;;;5080697;28;24476;-61
2021/10/13 12:00:06;;;;;;;4.20;3.90;;;;;;;;;;5079954;28;24446;-61
2021/10/13 12:02:31;;;;;;;4.32;3.92;;;;;;;;;;5078655;28;24460;-61
2021/10/13 12:05:02;;;;;;;4.00;3.70;;;;;;;;;;5081404;28;24418;-61
2021/10/13 12:07:27;;;;;;;3.90;3.60;;;;;;;;;;5083564;28;24480;-61
2021/10/13 12:09:56;;;;;;;4.00;3.70;;;;;;;;;;5082625;28;24451;-62
2021/10/13 12:12:21;;;;;;;3.85;3.10;;;;;;;;;;5082132;28;24414;-61
2021/10/13 12:14:47;;;;;;;3.57;3.27;;;;;;;;;;5078205;28;24767;-62
2021/10/13 12:17:22;;;;;;;4.00;3.30;;;;;;;;;;5069905;28;24835;-61
2021/10/13 12:19:47;;;;;;;3.85;3.45;;;;;;;;;;5076919;28;24530;-61
2021/10/13 12:22:12;;;;;;;3.80;3.50;;;;;;;;;;5063196;28;24431;-61
2021/10/13 12:24:37;;;;;;;4.32;3.92;;;;;;;;;;5079261;28;24502;-61
2021/10/13 12:27:03;;;;;;;4.20;3.88;;;;;;;;;;5081939;28;24951;-62
2021/10/13 12:29:37;;;;;;;3.73;3.43;;;;;;;;;;5076512;28;24585;-61
2021/10/13 12:32:13;;;;;;;3.97;3.58;;;;;;;;;;5061017;28;24508;-59
2021/10/13 12:34:40;;;;;;;4.15;3.55;;;;;;;;;;5060867;28;24419;-61
2021/10/13 12:37:06;;;;;;;3.20;3.00;;;;;;;;;;5079573;28;24428;-61
2021/10/13 12:39:34;;;;;;;3.30;2.87;;;;;;;;;;5083852;28;24475;-59
2021/10/13 12:42:02;;;;;;;3.53;3.20;;;;;;;;;;5070237;28;24438;-60
2021/10/13 12:44:28;;;;;;;3.40;3.10;;;;;;;;;;5081933;28;24428;-60
2021/10/13 12:46:55;;;;;;;3.80;3.40;;;;;;;;;;5101679;28;24389;-60
2021/10/13 12:49:22;;;;;;;3.13;2.88;;;;;;;;;;5086683;28;24418;-60
2021/10/13 12:51:49;;;;;;;3.92;3.30;;;;;;;;;;5079863;28;24454;-61
2021/10/13 12:54:14;;;;;;;3.53;3.22;;;;;;;;;;5061171;28;24502;-61
2021/10/13 12:56:39;;;;;;;3.80;3.50;;;;;;;;;;5059379;28;25297;-61
2021/10/13 12:59:04;;;;;;;4.40;4.00;;;;;;;;;;5078862;28;25322;-61
2021/10/13 13:01:29;;;;;;;3.50;3.20;;;;;;;;;;5081060;28;24450;-61
2021/10/13 13:03:54;;;;;;;3.92;3.53;;;;;;;;;;5064879;28;24426;-61
2021/10/13 13:06:20;;;;;;;5.32;4.28;;;;;;;;;;5061347;28;24395;-61
2021/10/13 13:08:45;;;;;;;4.40;4.00;;;;;;;;;;5075240;28;24476;-61
2021/10/13 13:11:10;;;;;;;4.10;3.70;;;;;;;;;;5077870;28;24465;-61
2021/10/13 13:13:35;;;;;;;3.70;3.40;;;;;;;;;;5079510;28;24468;-61
2021/10/13 13:16:00;;;;;;;3.77;3.47;;;;;;;;;;5072462;28;24526;-61
2021/10/13 13:18:25;;;;;;;3.25;3.05;;;;;;;;;;5062634;28;24464;-61
2021/10/13 13:20:53;;;;;;;5.20;3.97;;;;;;;;;;5078564;28;24430;-60
2021/10/13 13:23:18;;;;;;;3.67;3.38;;;;;;;;;;5074904;28;25085;-61
2021/10/13 13:25:44;;;;;;;4.63;4.22;;;;;;;;;;5081335;28;24435;-60
2021/10/13 13:28:09;;;;;;;4.45;4.15;;;;;;;;;;5083750;28;24582;-60
2021/10/13 13:30:34;;;;;;;5.57;4.85;;;;;;;;;;5086441;28;24479;-60
2021/10/13 13:32:59;;;;;;;4.90;4.50;;;;;;;;;;5083899;28;24445;-60
2021/10/13 13:35:24;;;;;;;4.70;4.30;;;;;;;;;;5072598;28;24434;-60
2021/10/13 13:37:50;;;;;;;3.80;3.50;;;;;;;;;;5072967;28;24769;-60
2021/10/13 13:40:15;;;;;;;4.10;3.80;;;;;;;;;;5081008;28;24517;-60
2021/10/13 13:42:40;;;;;;;3.80;3.50;;;;;;;;;;5085311;28;24426;-60
2021/10/13 13:45:06;;;;;;;3.93;3.63;;;;;;;;;;5090661;28;24544;-60
2021/10/13 13:47:32;;;;;;;3.70;3.40;;;;;;;;;;5079454;28;24425;-60
2021/10/13 13:49:59;;;;;;;4.10;3.70;;;;;;;;;;5070901;28;24606;-60
2021/10/13 13:52:24;;;;;;;3.90;3.60;;;;;;;;;;5074668;28;24525;-60
2021/10/13 13:54:49;;;;;;;4.30;3.90;;;;;;;;;;5080988;28;24572;-59
2021/10/13 13:57:15;;;;;;;3.45;3.20;;;;;;;;;;5071838;28;24789;-60
2021/10/13 13:59:40;;;;;;;3.10;2.90;;;;;;;;;;5081468;28;24863;-60
2021/10/13 14:02:05;;;;;;;3.22;2.92;;;;;;;;;;5080899;28;24437;-60
2021/10/13 14:04:30;;;;;;;3.00;2.80;;;;;;;;;;5071382;28;24418;-60
2021/10/13 14:06:55;;;;;;;3.80;3.50;;;;;;;;;;5084475;28;25193;-59
2021/10/13 14:09:20;;;;;;;3.60;3.30;;;;;;;;;;5085778;28;24410;-60
2021/10/13 14:11:46;;;;;;;3.90;3.60;;;;;;;;;;5072263;28;24435;-61
2021/10/13 14:14:11;;;;;;;3.80;3.50;;;;;;;;;;5084189;28;24440;-59
2021/10/13 14:16:36;;;;;;;3.80;3.40;;;;;;;;;;5078039;28;25025;-60
2021/10/13 14:19:02;;;;;;;4.17;3.53;;;;;;;;;;5063438;28;24464;-61
2021/10/13 14:21:27;;;;;;;3.63;3.03;;;;;;;;;;5068906;28;24399;-60
2021/10/13 14:23:52;;;;;;;3.80;3.40;;;;;;;;;;5070568;28;24510;-60
2021/10/13 14:26:17;;;;;;;3.63;3.42;;;;;;;;;;5072969;28;25077;-60
2021/10/13 14:28:43;;;;;;;3.42;3.20;;;;;;;;;;5070581;28;24924;-60
2021/10/13 14:31:08;;;;;;;3.08;2.88;;;;;;;;;;5061282;28;24933;-60
2021/10/13 14:33:35;;;;;;;3.30;3.10;;;;;;;;;;5083915;28;24429;-60
2021/10/13 14:36:00;;;;;;;3.00;2.80;;;;;;;;;;5082662;28;24445;-60